Map

Track Data

SID SEASON NUMBER BASIN SUBBASIN NAME ISO_TIME NATURE LAT LON WMO_WIND WMO_PRES WMO_AGENCY TRACK_TYPE DIST2LAND LANDFALL IFLAG USA_AGENCY USA_ATCF_ID USA_LAT USA_LON USA_RECORD USA_STATUS USA_WIND USA_PRES USA_SSHS USA_R34_NE USA_R34_SE USA_R34_SW USA_R34_NW USA_R50_NE USA_R50_SE USA_R50_SW USA_R50_NW USA_R64_NE USA_R64_SE USA_R64_SW USA_R64_NW USA_POCI USA_ROCI USA_RMW USA_EYE TOKYO_LAT TOKYO_LON TOKYO_GRADE TOKYO_WIND TOKYO_PRES TOKYO_R50_DIR TOKYO_R50_LONG TOKYO_R50_SHORT TOKYO_R30_DIR TOKYO_R30_LONG TOKYO_R30_SHORT TOKYO_LAND CMA_LAT CMA_LON CMA_CAT CMA_WIND CMA_PRES HKO_LAT HKO_LON HKO_CAT HKO_WIND HKO_PRES NEWDELHI_LAT NEWDELHI_LON NEWDELHI_GRADE NEWDELHI_WIND NEWDELHI_PRES NEWDELHI_CI NEWDELHI_DP NEWDELHI_POCI REUNION_LAT REUNION_LON REUNION_TYPE REUNION_WIND REUNION_PRES REUNION_TNUM REUNION_CI REUNION_RMW REUNION_R34_NE REUNION_R34_SE REUNION_R34_SW REUNION_R34_NW REUNION_R50_NE REUNION_R50_SE REUNION_R50_SW REUNION_R50_NW REUNION_R64_NE REUNION_R64_SE REUNION_R64_SW REUNION_R64_NW BOM_LAT BOM_LON BOM_TYPE BOM_WIND BOM_PRES BOM_TNUM BOM_CI BOM_RMW BOM_R34_NE BOM_R34_SE BOM_R34_SW BOM_R34_NW BOM_R50_NE BOM_R50_SE BOM_R50_SW BOM_R50_NW BOM_R64_NE BOM_R64_SE BOM_R64_SW BOM_R64_NW BOM_ROCI BOM_POCI BOM_EYE BOM_POS_METHOD BOM_PRES_METHOD NADI_LAT NADI_LON NADI_CAT NADI_WIND NADI_PRES WELLINGTON_LAT WELLINGTON_LON WELLINGTON_WIND WELLINGTON_PRES DS824_LAT DS824_LON DS824_STAGE DS824_WIND DS824_PRES TD9636_LAT TD9636_LON TD9636_STAGE TD9636_WIND TD9636_PRES TD9635_LAT TD9635_LON TD9635_WIND TD9635_PRES TD9635_ROCI NEUMANN_LAT NEUMANN_LON NEUMANN_CLASS NEUMANN_WIND NEUMANN_PRES MLC_LAT MLC_LON MLC_CLASS MLC_WIND MLC_PRES USA_GUST BOM_GUST BOM_GUST_PER REUNION_GUST REUNION_GUST_PER USA_SEAHGT USA_SEARAD_NE USA_SEARAD_SE USA_SEARAD_SW USA_SEARAD_NW STORM_SPEED STORM_DIR
1995150N05156 1995 26 WP MM ELI 1995-05-30 00:00:00 NR 5.20000 155.500 main 1020 1020 O_____________ jtwc_wp WP041995 5.20000 155.500 15 -1 3 341
1995150N05156 1995 26 WP MM ELI 1995-05-30 03:00:00 NR 5.35000 155.450 main 1041 1036 P_____________ WP041995 5.35000 155.450 15 -1 3 343
1995150N05156 1995 26 WP MM ELI 1995-05-30 06:00:00 NR 5.50000 155.400 main 1046 1046 O_____________ jtwc_wp WP041995 5.50000 155.400 15 -1 3 343
1995150N05156 1995 26 WP MM ELI 1995-05-30 09:00:00 NR 5.65000 155.350 main 1066 1056 P_____________ WP041995 5.65000 155.350 15 -1 3 343
1995150N05156 1995 26 WP MM ELI 1995-05-30 12:00:00 NR 5.80000 155.300 main 1070 1070 O_____________ jtwc_wp WP041995 5.80000 155.300 15 -1 3 344
1995150N05156 1995 26 WP MM ELI 1995-05-30 15:00:00 NR 5.94999 155.265 main 1080 1080 P_____________ WP041995 5.94999 155.265 15 -1 3 343
1995150N05156 1995 26 WP MM ELI 1995-05-30 18:00:00 NR 6.10000 155.200 main 1095 1095 O_____________ jtwc_wp WP041995 6.10000 155.200 15 -1 4 329
1995150N05156 1995 26 WP MM ELI 1995-05-30 21:00:00 NR 6.25750 155.073 main 1111 1106 P_____________ WP041995 6.25750 155.073 15 -1 4 315
1995150N05156 1995 26 WP MM ELI 1995-05-31 00:00:00 NR 6.40000 154.900 main 1112 1108 O_____________ jtwc_wp WP041995 6.40000 154.900 15 -1 4 306
1995150N05156 1995 26 WP MM ELI 1995-05-31 03:00:00 NR 6.51499 154.715 main 1114 1109 P_____________ WP041995 6.51499 154.715 15 -1 4 297
1995150N05156 1995 26 WP MM ELI 1995-05-31 06:00:00 NR 6.60000 154.500 main 1116 1108 O_____________ jtwc_wp WP041995 6.60000 154.500 15 -1 5 289
1995150N05156 1995 26 WP MM ELI 1995-05-31 09:00:00 NR 6.66499 154.265 main 1119 1108 P_____________ WP041995 6.66499 154.265 15 -1 5 281
1995150N05156 1995 26 WP MM ELI 1995-05-31 12:00:00 NR 6.70000 154.000 main 1108 1098 O_____________ jtwc_wp WP041995 6.70000 154.000 15 -1 6 274
1995150N05156 1995 26 WP MM ELI 1995-05-31 15:00:00 NR 6.69999 153.707 main 1098 1089 P_____________ WP041995 6.69999 153.707 15 -1 6 270
1995150N05156 1995 26 WP MM ELI 1995-05-31 18:00:00 NR 6.70000 153.400 main 1089 1081 O_____________ jtwc_wp WP041995 6.70000 153.400 15 -1 6 274
1995150N05156 1995 26 WP MM ELI 1995-05-31 21:00:00 NR 6.74248 153.100 main 1081 1081 P_____________ WP041995 6.74248 153.100 15 -1 6 280
1995150N05156 1995 26 WP MM ELI 1995-06-01 00:00:00 NR 6.80000 152.800 main 1085 1079 O_____________ jtwc_wp WP041995 6.80000 152.800 15 -1 6 280
1995150N05156 1995 26 WP MM ELI 1995-06-01 03:00:00 NR 6.84247 152.507 main 1079 1079 P_____________ WP041995 6.84247 152.507 15 -1 6 280
1995150N05156 1995 26 WP MM ELI 1995-06-01 06:00:00 NR 6.90000 152.200 main 1085 1082 O_____________ jtwc_wp WP041995 6.90000 152.200 15 -1 7 282
1995150N05156 1995 26 WP MM ELI 1995-06-01 09:00:00 NR 6.98501 151.850 main 1091 1090 P_____________ WP041995 6.98501 151.850 17 -1 7 286
1995150N05156 1995 26 WP MM ELI 1995-06-01 12:00:00 NR 7.10000 151.500 main 1100 1099 O_____________ jtwc_wp WP041995 7.10000 151.500 20 -1 7 290
1995150N05156 1995 26 WP MM ELI 1995-06-01 15:00:00 NR 7.21997 151.192 main 1109 1109 P_____________ WP041995 7.21997 151.192 20 -1 7 297
1995150N05156 1995 26 WP MM ELI 1995-06-01 18:00:00 NR 7.40000 150.900 main 1131 1129 O_____________ jtwc_wp WP041995 7.40000 150.900 20 -1 8 307
1995150N05156 1995 26 WP MM ELI 1995-06-01 21:00:00 NR 7.67001 150.585 main 1154 1150 P_____________ WP041995 7.67001 150.585 20 -1 8 315
1995150N05156 1995 26 WP MM ELI 1995-06-02 00:00:00 NR 8.00000 150.300 main 1176 1176 O_____________ jtwc_wp WP041995 8.00000 150.300 20 -1 8 323
1995150N05156 1995 26 WP MM ELI 1995-06-02 03:00:00 NR 8.33497 150.085 main 1203 1203 P_____________ WP041995 8.33497 150.085 20 -1 8 331
1995150N05156 1995 26 WP MM ELI 1995-06-02 06:00:00 NR 8.70000 149.900 main 1241 1241 O_____________ jtwc_wp WP041995 8.70000 149.900 20 -1 8 334
1995150N05156 1995 26 WP MM ELI 1995-06-02 09:00:00 NR 9.09246 149.715 main 1280 1280 P_____________ WP041995 9.09246 149.715 20 -1 9 334
1995150N05156 1995 26 WP MM ELI 1995-06-02 12:00:00 NR 9.50000 149.500 main 1320 1320 O_____________ jtwc_wp WP041995 9.50000 149.500 20 -1 10 329
1995150N05156 1995 26 WP MM ELI 1995-06-02 15:00:00 NR 9.90749 149.222 main 1359 1359 P_____________ WP041995 9.90749 149.222 20 -1 10 324
1995150N05156 1995 26 WP MM ELI 1995-06-02 18:00:00 NR 10.3000 148.900 main 1399 1399 O_____________ jtwc_wp WP041995 10.3000 148.900 20 -1 10 319
1995150N05156 1995 26 WP MM ELI 1995-06-02 21:00:00 NR 10.6575 148.557 main 1440 1439 P_____________ WP041995 10.6575 148.557 20 -1 10 316
1995150N05156 1995 26 WP MM ELI 1995-06-03 00:00:00 NR 11.0000 148.200 main 1470 1470 O_____________ jtwc_wp WP041995 11.0000 148.200 20 -1 10 316
1995150N05156 1995 26 WP MM ELI 1995-06-03 03:00:00 NR 11.3649 147.865 main 1513 1513 P_____________ WP041995 11.3649 147.865 22 -1 10 316
1995150N05156 1995 26 WP MM ELI 1995-06-03 06:00:00 NR 11.7000 147.500 main 1546 1546 O_____________ jtwc_wp WP041995 11.7000 147.500 25 -1 10 308
1995150N05156 1995 26 WP MM ELI 1995-06-03 09:00:00 NR 11.9725 147.065 main 1579 1579 P_____________ WP041995 11.9725 147.065 25 -1 10 300
1995150N05156 1995 26 WP MM ELI 1995-06-03 12:00:00 NR 12.2000 146.600 main 1602 1602 O_____________ jtwc_wp WP041995 12.2000 146.600 25 -1 10 296
1995150N05156 1995 26 WP MM ELI 1995-06-03 15:00:00 NR 12.4074 146.150 main 1625 1625 P_____________ WP041995 12.4074 146.150 27 -1 10 294
1995150N05156 1995 26 WP MM ELI 1995-06-03 18:00:00 NR 12.6000 145.700 main 1649 1649 O_____________ jtwc_wp WP041995 12.6000 145.700 30 -1 10 295
1995150N05156 1995 26 WP MM ELI 1995-06-03 21:00:00 NR 12.8074 145.257 main 1675 1675 P_____________ WP041995 12.8074 145.257 32 -1 10 295
1995150N05156 1995 26 WP MM ELI 1995-06-04 00:00:00 NR 13.0000 144.800 main 1703 1703 O_____________ jtwc_wp WP041995 13.0000 144.800 35 0 10 291
1995150N05156 1995 26 WP MM ELI 1995-06-04 03:00:00 NR 13.1649 144.307 main 1732 1732 P_____________ WP041995 13.1649 144.307 37 0 8 285
1995150N05156 1995 26 WP MM ELI 1995-06-04 06:00:00 NR 13.2200 143.960 main 1738 1738 O__O__________ jtwc_wp WP041995 13.3000 143.800 40 0 12.9000 144.600 TD 30 1002 8 276
1995150N05156 1995 26 WP MM ELI 1995-06-04 09:00:00 NR 13.2500 143.517 main 1758 1751 P__P__________ WP041995 13.4074 143.300 40 0 12.9353 143.953 TD 30 1002 9 274
1995150N05156 1995 26 WP MM ELI 1995-06-04 12:00:00 NR 13.2857 143.014 main 1751 1735 O__O__________ jtwc_wp WP041995 13.5000 142.800 40 0 13.0000 143.300 TD 30 1002 10 276
1995150N05156 1995 26 WP MM ELI 1995-06-04 15:00:00 NR 13.3561 142.471 main 1746 1731 P__P__________ WP041995 13.5924 142.300 40 0 13.1199 142.642 TD 30 1002 11 281
1995150N05156 1995 26 WP MM ELI 1995-06-04 18:00:00 NR 13.5000 141.900 main 1733 1720 O__O__________ jtwc_wp WP041995 13.7000 141.800 40 0 13.3000 142.000 TD 30 1002 11 286
1995150N05156 1995 26 WP MM ELI 1995-06-04 21:00:00 NR 13.6736 141.342 main 1711 1661 P__P__________ WP041995 13.8349 141.300 40 0 13.5124 141.385 TD 30 1002 11 291
1995150N05156 1995 26 WP MM ELI 1995-06-05 00:00:00 NR 13.9000 140.800 main 1661 1612 O__O__________ jtwc_wp WP041995 14.0000 140.800 40 0 13.8000 140.800 TD 30 1002 12 296
1995150N05156 1995 26 WP MM ELI 1995-06-05 03:00:00 NR 14.1774 140.264 main 1614 1566 P__P__________ WP041995 14.1849 140.292 37 0 14.1699 140.235 TD 30 1002 12 301
1995150N05156 1995 26 WP MM ELI 1995-06-05 06:00:00 NR 14.5000 139.750 main 1568 1520 O__O__________ jtwc_wp WP041995 14.4000 139.800 35 0 14.6000 139.700 TD 30 1002 12 304
1995150N05156 1995 26 WP MM ELI 1995-06-05 09:00:00 NR 14.8312 139.252 main 1520 1475 P__P__________ WP041995 14.6274 139.335 35 0 15.0350 139.170 TD 30 1002 12 307
1995150N05156 1995 26 WP MM ELI 1995-06-05 12:00:00 NR 15.2000 138.800 main 1475 1443 O__O__________ jtwc_wp WP041995 14.9000 138.900 35 0 15.5000 138.700 TD 30 1002 11 313
1995150N05156 1995 26 WP MM ELI 1995-06-05 15:00:00 NR 15.6174 138.391 main 1443 1421 P__P__________ WP041995 15.2275 138.470 35 0 16.0074 138.312 TD 30 1002 11 320
1995150N05156 1995 26 WP MM ELI 1995-06-05 18:00:00 NR 16.0500 138.050 main 1427 1402 O__O__________ jtwc_wp WP041995 15.6000 138.100 35 0 16.5000 138.000 TD 30 1002 10 325
1995150N05156 1995 26 WP MM ELI 1995-06-05 21:00:00 NR 16.4612 137.766 main 1409 1396 P__P__________ WP041995 15.9924 137.812 35 0 16.9299 137.720 TD 30 1002 9 329
1995150N05156 1995 26 WP MM ELI 1995-06-06 00:00:00 NR 16.8500 137.550 main 1404 1392 O__O__________ jtwc_wp WP041995 16.4000 137.600 35 0 17.3000 137.500 TD 30 1002 9 334
1995150N05156 1995 26 WP MM ELI 1995-06-06 03:00:00 NR 17.2187 137.374 main 1396 1391 P__P__________ WP041995 16.8150 137.420 35 0 17.6225 137.327 TD 30 1002 8 338
1995150N05156 1995 26 WP MM ELI 1995-06-06 06:00:00 NR 17.5500 137.250 main 1404 1394 O__O__________ jtwc_wp WP041995 17.2000 137.300 35 0 17.9000 137.200 TD 30 1002 7 342
1995150N05156 1995 26 WP MM ELI 1995-06-06 09:00:00 NR 17.8475 137.156 main 1404 1399 P__P__________ WP041995 17.5225 137.227 35 0 18.1725 137.085 TD 30 1002 6 346
1995150N05156 1995 26 WP MM ELI 1995-06-06 12:00:00 NR 18.1000 137.100 main 1409 1409 O__O__________ jtwc_wp WP041995 17.8000 137.200 35 0 18.4000 137.000 TD 30 1002 5 350
1995150N05156 1995 26 WP MM ELI 1995-06-06 15:00:00 NR 18.3112 137.060 main 1419 1414 P__P__________ WP041995 18.0575 137.185 35 0 18.5650 136.935 TD 30 1002 4 355
1995150N05156 1995 26 WP MM ELI 1995-06-06 18:00:00 NR 18.5000 137.050 main 1429 1420 O__O__________ jtwc_wp WP041995 18.3000 137.200 35 0 18.7000 136.900 TD 30 1002 4 0
1995150N05156 1995 26 WP MM ELI 1995-06-06 21:00:00 NR 18.7038 137.071 main 1440 1440 P__P__________ WP041995 18.5575 137.250 35 0 18.8500 136.892 TD 30 1002 4 5
1995150N05156 1995 26 WP MM ELI 1995-06-07 00:00:00 NR 18.9000 137.100 main 1450 1450 O__O__________ jtwc_wp WP041995 18.8000 137.300 35 0 19.0000 136.900 TD 30 1002 4 7
1995150N05156 1995 26 WP MM ELI 1995-06-07 03:00:00 NR 19.0787 137.104 main 1462 1462 P__P__________ WP041995 19.0075 137.308 35 0 19.1500 136.900 TD 30 1002 4 0
1995150N05156 1995 26 WP MM ELI 1995-06-07 06:00:00 NR 19.2500 137.100 main 1456 1446 O__O__________ jtwc_wp WP041995 19.2000 137.300 35 0 19.3000 136.900 TD 30 1002 3 0
1995150N05156 1995 26 WP MM ELI 1995-06-07 09:00:00 NR 19.4175 137.104 main 1446 1425 P__P__________ WP041995 19.3925 137.307 35 0 19.4425 136.900 TD 30 1002 4 0
1995150N05156 1995 26 WP MM ELI 1995-06-07 12:00:00 NR 19.6000 137.100 main 1425 1405 O__O__________ jtwc_wp WP041995 19.6000 137.300 35 0 19.6000 136.900 TD 30 1002 4 353
1995150N05156 1995 26 WP MM ELI 1995-06-07 15:00:00 NR 19.8025 137.071 main 1405 1385 P__P__________ WP041995 19.8275 137.250 35 0 19.7775 136.893 TD 30 1002 5 356
1995150N05156 1995 26 WP MM ELI 1995-06-07 18:00:00 NR 20.0500 137.050 main 1375 1355 O__O__________ jtwc_wp WP041995 20.1000 137.200 35 0 20.0000 136.900 TD 30 1002 6 0
1995150N05156 1995 26 WP MM ELI 1995-06-07 21:00:00 NR 20.3525 137.060 main 1345 1315 P__P__________ WP041995 20.4200 137.185 32 -1 20.2850 136.935 TD 30 1002 7 4
1995150N05156 1995 26 WP MM ELI 1995-06-08 00:00:00 NR 20.7000 137.100 main 1315 1286 O__O__________ jtwc_wp WP041995 20.8000 137.200 30 -1 20.6000 137.000 TD 30 1002 7 7
1995150N05156 1995 26 WP MM ELI 1995-06-08 03:00:00 NR 21.0562 137.153 main 1281 1252 P__P__________ WP041995 21.2200 137.220 30 -1 20.8925 137.085 TD 27 1004 8 11
1995150N05156 1995 26 WP MM ELI 1995-06-08 06:00:00 NR 21.4500 137.250 main 1247 1218 O__O__________ jtwc_wp WP041995 21.7000 137.300 30 -1 21.2000 137.200 TD 25 1006 8 15
1995150N05156 1995 26 WP MM ELI 1995-06-08 09:00:00 NR 21.8662 137.388 main 1214 1177 P__P__________ WP041995 22.2199 137.448 30 -1 21.5125 137.328 TD 25 1006 10 19
1995150N05156 1995 26 WP MM ELI 1995-06-08 12:00:00 NR 22.4143 137.614 main 1177 1136 O__O__________ jtwc_wp WP041995 22.8000 137.700 30 -1 21.9000 137.500 TD 25 1006 13 23
1995150N05156 1995 26 WP MM ELI 1995-06-08 15:00:00 NR 23.0791 137.938 main 1126 1086 P__P__________ WP041995 23.4123 138.041 30 -1 22.4126 137.732 TD 25 1006 16 26
1995150N05156 1995 26 WP MM ELI 1995-06-08 18:00:00 NR 23.8800 138.400 main 1083 1008 O__O__________ jtwc_wp WP041995 24.1000 138.500 30 -1 23.0000 138.000 TD 25 1006 20 30
1995150N05156 1995 26 WP MM ELI 1995-06-08 21:00:00 NR 24.8320 139.027 main 1008 944 P_____________ WP041995 24.8320 139.027 30 -1 TD 22 33
1995150N05156 1995 26 WP MM ELI 1995-06-09 00:00:00 NR 25.7000 139.700 main 938 873 O_____________ jtwc_wp WP041995 25.7000 139.700 30 -1 24 36
1995150N05156 1995 26 WP MM ELI 1995-06-09 03:00:00 NR 26.7491 140.545 main 873 797 P_____________ WP041995 26.7491 140.545 27 -1 27 36
1995150N05156 1995 26 WP MM ELI 1995-06-09 06:00:00 NR 27.9000 141.500 main 790 O_____________ jtwc_wp WP041995 27.9000 141.500 25 -1 29 36

Digital Typhoon Data and Search

About IBTrACS Database

This database is a web-friendly format of International Best Track Archive for Climate Stewardship (IBTrACS), a global best track data archive curated by NOAA dating back to 1842.

Updated: 2021-11-26